(°C)
23°
23°
24°
25°
25°
26°
27°
(°C)
27°
28°
28°
29°
29°
29°
29°
WZW
W
NW
NNW
N
N
N
(km/u)
2-6
2-6
3-7
4-10
5-12
6-15
8-17
(mm)
0.3
0.1
0.2
0.3
0.4
0.3
0.1
(%)
39
40
42
44
46
31
33

Zonverhoging

/ -9.1°
sun-icon
UV 6
05:37
20:35
Wassende maan (48°)
09:39
23:43

METAR voor Wilmington Manor (KILG)

Tijd Voorwaarden Temperatuur/
Dauwpunt
Wind Zicht Weer Wolken Luchtdruk Wijzigen Ruw
VFR 22.2°C / 21.1°C 290º 6kt >10km Light Rain 0.13mm precipitation Few Clouds 7000ft 1014 - KILG 030751Z AUTO 29006KT 10SM -RA FEW070 22/21 A2995 RMK AO2 RAB07E22B43 SLP141 P0000 T02220211
VFR 22.2°C / 21.1°C 250º 4kt >10km - Broken Clouds 11000ft 1014 - KILG 030551Z AUTO 25004KT 10SM BKN110 22/21 A2997 RMK AO2 SLP147 60009 T02220211 10239 20222 55008
VFR 22.2°C / 21.1°C 240º 3kt >10km 0.13mm precipitation Few Clouds 4900ft
Few Clouds 7000ft
1014 - KILG 030451Z AUTO 24003KT 10SM FEW049 FEW070 22/21 A2996 RMK AO2 RAB33E44 SLP142 P0000 T02220211 403280217
VFR 22.8°C / 21.1°C 190º 5kt >10km 0.51mm precipitation Few Clouds 11000ft 1015 - KILG 030351Z AUTO 19005KT 10SM FEW110 23/21 A2998 RMK AO2 RAE16 SLP151 P0002 T02280211
MVFR 22.8°C / 21.1°C 300º 5kt 6400m Rain Mist 1.27mm precipitation Few Clouds 7500ft
Broken Clouds 10000ft
Broken Clouds 12000ft
1015 - KILG 030251Z AUTO 30005KT 4SM RA BR FEW075 BKN100 BKN120 23/21 A2999 RMK AO2 LTG DSNT NE-S RAB22 SLP155 P0005 60007 T02280211 53017
VFR 23.3°C / 21.7°C 270º 9kt Gust 14kt >10km Light Rain 0.13mm precipitation Few Clouds 6000ft
Few Clouds 7000ft
Broken Clouds 10000ft
- KILG 030223Z AUTO 27009G14KT 10SM -RA FEW060 FEW070 BKN100 23/22 A2999 RMK AO2 LTG DSNT S-NW RAB22 PRESRR P0000 T02330217
VFR 23.3°C / 21.7°C 180º 7kt >10km in the Vicinity Thunderstorm 0.51mm precipitation Scattered Clouds 11000ft 1014 - KILG 030151Z AUTO 18007KT 10SM VCTS SCT110 23/22 A2996 RMK AO2 LTG DSNT S AND SW RAE46 SLP145 P0002 T02330217
VFR 23.3°C / 21.1°C 300º 7kt >10km in the Vicinity Thunderstorm Light Rain 0.25mm precipitation Few Clouds 3900ft
Scattered Clouds 8500ft
Broken Clouds 11000ft
- KILG 030133Z AUTO 30007KT 9SM VCTS -RA FEW039 SCT085 BKN110 23/21 A2996 RMK AO2 LTG DSNT S AND SW P0001 T02330211
VFR 23.3°C / 20.6°C 230º 8kt >10km Light Rain 0.25mm precipitation Few Clouds 3300ft
Scattered Clouds 8500ft
Broken Clouds 11000ft
- KILG 030120Z AUTO 23008KT 9SM -RA FEW033 SCT085 BKN110 23/21 A2996 RMK AO2 LTG DSNT SW AND W P0001 T02330206
VFR 23.3°C / 20.6°C 200º 5kt >10km in the Vicinity Thunderstorm Light Rain 0.25mm precipitation Few Clouds 4000ft
Broken Clouds 11000ft
- KILG 030058Z AUTO 20005KT 10SM VCTS -RA FEW040 BKN110 23/21 A2994 RMK AO2 LTG DSNT SW AND W P0001 T02330206
VFR 23.3°C / 21.1°C 200º 9kt >10km Light Rain 0.13mm precipitation Few Clouds 4300ft
Few Clouds 7000ft
Broken Clouds 11000ft
1013 - KILG 030051Z AUTO 20009KT 7SM -RA FEW043 FEW070 BKN110 23/21 A2994 RMK AO2 LTG DSNT SE AND SW RAB43 SLP137 P0000 T02330211
VFR 23.3°C / 20.6°C 200º 8kt >10km - Scattered Clouds 11000ft - KILG 030040Z AUTO 20008KT 10SM SCT110 23/21 A2994 RMK AO2 LTG DSNT SE T02330206
VFR 23.9°C / 21.1°C 200º 9kt >10km in the Vicinity Thunderstorm Vertical Visibility of 0ft.
Broken Clouds 11000ft
- KILG 030025Z AUTO 20009KT 10SM VCTS SCT085 BKN110 24/21 A2995 RMK AO2 LTG DSNT SE-SW T02390211
VFR 23.3°C / 21.1°C 170º 10kt. Wind Shift present. >10km 3.30mm precipitation Scattered Clouds 9000ft
Scattered Clouds 11000ft
1013 - KILG 022351Z AUTO 17010KT 10SM SCT090 SCT110 23/21 A2994 RMK AO2 WSHFT 2238 LTG DSNT E AND SE RAE48 TSE08B12E27 SLP137 P0013 60116 T02330211 10328 20217 58008
VFR 22.8°C / 19.4°C 190º 11kt. Wind Shift present. >10km in the Vicinity Thunderstorm Light Rain 3.30mm precipitation Few Clouds 5500ft
Scattered Clouds 10000ft
Broken Clouds 11000ft
- KILG 022333Z AUTO 19011KT 10SM VCTS -RA FEW055 SCT100 BKN110 23/19 A2995 RMK AO2 WSHFT 2238 LTG DSNT E AND SW TSE08B12E27 P0013 T02280194
VFR 21.7°C / 19.4°C 180º 11kt. Wind Shift present. >10km Light Thunderstorm Rain 3.05mm precipitation Few Clouds 5500ft
Broken Clouds 9500ft
Overcast 11000ft
- KILG 022318Z AUTO 18011KT 8SM -TSRA FEW055 BKN095 OVC110 22/19 A2996 RMK AO2 WSHFT 2238 LTG DSNT SE AND SW TSE08B12 P0012 T02170194
MVFR 21.7°C / 19.4°C 210º 7kt. Wind Shift present. 4800m in the Vicinity Thunderstorm Heavy Rain Mist 2.54mm precipitation Broken Clouds 4500ft
Broken Clouds 7500ft
Overcast 11000ft
- KILG 022308Z 21007KT 3SM VCTS +RA BR BKN045 BKN075 OVC110 22/19 A2996 RMK AO2 WSHFT 2238 LTG DSNT SE-W TSE08 P0010 T02170194
IFR 21.7°C / 18.9°C 210º 10kt. Wind Shift present. 3200m Heavy Thunderstorm Rain 1.02mm precipitation Broken Clouds 4500ft
Overcast 7500ft
- KILG 022257Z 21010KT 2SM +TSRA BKN045 OVC075 22/19 A2996 RMK AO2 WSHFT 2238 TWR VIS 3 LTG DSNT S-W P0004 T02170189
IFR 23.3°C / 20°C 300º 18kt Gust 27kt. Wind Shift present. 1600m. Runway 01: Visual range is variable from 1524m up to more than 1829m. Heavy Thunderstorm Rain 17.27mm precipitation Broken Clouds 3700ft
Broken Clouds 7000ft
Overcast 10000ft
- KILG 022232Z AUTO 30018G27KT 1SM R01/5000VP6000FT +TSRA BKN037 BKN070 OVC100 23/20 A2995 RMK AO2 PK WND 30027/2228 WSHFT 2154 LTG DSNT W RAB2154 P0068 T02330200
LIFR 25.6°C / 18.3°C variable 6kt Gust 27kt. Wind Shift present. 1200m. Runway 01: Visual range is variable from 914m up to more than 1829m. Heavy Thunderstorm Rain 11.43mm precipitation Broken Clouds 2400ft
Broken Clouds 7500ft
Overcast 10000ft
- KILG 022221Z AUTO VRB06G27KT 3/4SM R01/3000VP6000FT +TSRA BKN024 BKN075 OVC100 26/18 A2993 RMK AO2 PK WND 24027/2217 WSHFT 2154 LTG DSNT W-NE RAB2154 P0045 T02560183
IFR 25.6°C / 23.3°C 300º 19kt Gust 26kt 2800m Thunderstorm Rain Mist 0.25mm precipitation Broken Clouds 3500ft - KILG 022157Z AUTO 30019G26KT 1 3/4SM TSRA BR BKN035 26/23 A2993 RMK AO2 PK WND 29026/2157 LTG DSNT W AND NW RAB54 P0001 T02560233
VFR 28.3°C / 23.3°C 330º 16kt >10km Thunderstorm Vertical Visibility of 0ft. 1012 - KILG 022151Z AUTO 33016KT 10SM TS BKN033 28/23 A2991 RMK AO2 LTG DSNT W AND NW TSB36 SLP128 T02830233
VFR 30°C / 22.8°C 260º 6kt >10km Thunderstorm Vertical Visibility of 0ft. - KILG 022142Z AUTO 26006KT 10SM TS SCT035 30/23 A2991 RMK AO2 LTG DSNT W-NE TSB36 T03000228
VFR 30.6°C / 22.8°C 220º 8kt >10km in the Vicinity Thunderstorm Vertical Visibility of 0ft.
Few Clouds 12000ft
- KILG 022113Z AUTO 22008KT 10SM VCTS FEW100 FEW120 31/23 A2991 RMK AO2 LTG DSNT W-N T03060228

VFR

22.2°C / 21.1°C

[Meer]
Wind 290º 6kt
Zicht >10km
Weer Light Rain 0.13mm precipitation
Wolken Few Clouds 7000ft
Luchtdruk 1014
Wijzigen -
Ruw KILG 030751Z AUTO 29006KT 10SM -RA FEW070 22/21 A2995 RMK AO2 RAB07E22B43 SLP141 P0000 T02220211

VFR

22.2°C / 21.1°C

[Meer]
Wind 250º 4kt
Zicht >10km
Weer -
Wolken Broken Clouds 11000ft
Luchtdruk 1014
Wijzigen -
Ruw KILG 030551Z AUTO 25004KT 10SM BKN110 22/21 A2997 RMK AO2 SLP147 60009 T02220211 10239 20222 55008

VFR

22.2°C / 21.1°C

[Meer]
Wind 240º 3kt
Zicht >10km
Weer 0.13mm precipitation
Wolken Few Clouds 4900ft
Few Clouds 7000ft
Luchtdruk 1014
Wijzigen -
Ruw KILG 030451Z AUTO 24003KT 10SM FEW049 FEW070 22/21 A2996 RMK AO2 RAB33E44 SLP142 P0000 T02220211 403280217

VFR

22.8°C / 21.1°C

[Meer]
Wind 190º 5kt
Zicht >10km
Weer 0.51mm precipitation
Wolken Few Clouds 11000ft
Luchtdruk 1015
Wijzigen -
Ruw KILG 030351Z AUTO 19005KT 10SM FEW110 23/21 A2998 RMK AO2 RAE16 SLP151 P0002 T02280211

MVFR

22.8°C / 21.1°C

[Meer]
Wind 300º 5kt
Zicht 6400m
Weer Rain Mist 1.27mm precipitation
Wolken Few Clouds 7500ft
Broken Clouds 10000ft
Broken Clouds 12000ft
Luchtdruk 1015
Wijzigen -
Ruw KILG 030251Z AUTO 30005KT 4SM RA BR FEW075 BKN100 BKN120 23/21 A2999 RMK AO2 LTG DSNT NE-S RAB22 SLP155 P0005 60007 T02280211 53017

VFR

23.3°C / 21.7°C

[Meer]
Wind 270º 9kt Gust 14kt
Zicht >10km
Weer Light Rain 0.13mm precipitation
Wolken Few Clouds 6000ft
Few Clouds 7000ft
Broken Clouds 10000ft
Luchtdruk
Wijzigen -
Ruw KILG 030223Z AUTO 27009G14KT 10SM -RA FEW060 FEW070 BKN100 23/22 A2999 RMK AO2 LTG DSNT S-NW RAB22 PRESRR P0000 T02330217

VFR

23.3°C / 21.7°C

[Meer]
Wind 180º 7kt
Zicht >10km
Weer in the Vicinity Thunderstorm 0.51mm precipitation
Wolken Scattered Clouds 11000ft
Luchtdruk 1014
Wijzigen -
Ruw KILG 030151Z AUTO 18007KT 10SM VCTS SCT110 23/22 A2996 RMK AO2 LTG DSNT S AND SW RAE46 SLP145 P0002 T02330217

VFR

23.3°C / 21.1°C

[Meer]
Wind 300º 7kt
Zicht >10km
Weer in the Vicinity Thunderstorm Light Rain 0.25mm precipitation
Wolken Few Clouds 3900ft
Scattered Clouds 8500ft
Broken Clouds 11000ft
Luchtdruk
Wijzigen -
Ruw KILG 030133Z AUTO 30007KT 9SM VCTS -RA FEW039 SCT085 BKN110 23/21 A2996 RMK AO2 LTG DSNT S AND SW P0001 T02330211

VFR

23.3°C / 20.6°C

[Meer]
Wind 230º 8kt
Zicht >10km
Weer Light Rain 0.25mm precipitation
Wolken Few Clouds 3300ft
Scattered Clouds 8500ft
Broken Clouds 11000ft
Luchtdruk
Wijzigen -
Ruw KILG 030120Z AUTO 23008KT 9SM -RA FEW033 SCT085 BKN110 23/21 A2996 RMK AO2 LTG DSNT SW AND W P0001 T02330206

VFR

23.3°C / 20.6°C

[Meer]
Wind 200º 5kt
Zicht >10km
Weer in the Vicinity Thunderstorm Light Rain 0.25mm precipitation
Wolken Few Clouds 4000ft
Broken Clouds 11000ft
Luchtdruk
Wijzigen -
Ruw KILG 030058Z AUTO 20005KT 10SM VCTS -RA FEW040 BKN110 23/21 A2994 RMK AO2 LTG DSNT SW AND W P0001 T02330206

VFR

23.3°C / 21.1°C

[Meer]
Wind 200º 9kt
Zicht >10km
Weer Light Rain 0.13mm precipitation
Wolken Few Clouds 4300ft
Few Clouds 7000ft
Broken Clouds 11000ft
Luchtdruk 1013
Wijzigen -
Ruw KILG 030051Z AUTO 20009KT 7SM -RA FEW043 FEW070 BKN110 23/21 A2994 RMK AO2 LTG DSNT SE AND SW RAB43 SLP137 P0000 T02330211

VFR

23.3°C / 20.6°C

[Meer]
Wind 200º 8kt
Zicht >10km
Weer -
Wolken Scattered Clouds 11000ft
Luchtdruk
Wijzigen -
Ruw KILG 030040Z AUTO 20008KT 10SM SCT110 23/21 A2994 RMK AO2 LTG DSNT SE T02330206

VFR

23.9°C / 21.1°C

[Meer]
Wind 200º 9kt
Zicht >10km
Weer in the Vicinity Thunderstorm
Wolken Vertical Visibility of 0ft.
Broken Clouds 11000ft
Luchtdruk
Wijzigen -
Ruw KILG 030025Z AUTO 20009KT 10SM VCTS SCT085 BKN110 24/21 A2995 RMK AO2 LTG DSNT SE-SW T02390211

VFR

23.3°C / 21.1°C

[Meer]
Wind 170º 10kt. Wind Shift present.
Zicht >10km
Weer 3.30mm precipitation
Wolken Scattered Clouds 9000ft
Scattered Clouds 11000ft
Luchtdruk 1013
Wijzigen -
Ruw KILG 022351Z AUTO 17010KT 10SM SCT090 SCT110 23/21 A2994 RMK AO2 WSHFT 2238 LTG DSNT E AND SE RAE48 TSE08B12E27 SLP137 P0013 60116 T02330211 10328 20217 58008

VFR

22.8°C / 19.4°C

[Meer]
Wind 190º 11kt. Wind Shift present.
Zicht >10km
Weer in the Vicinity Thunderstorm Light Rain 3.30mm precipitation
Wolken Few Clouds 5500ft
Scattered Clouds 10000ft
Broken Clouds 11000ft
Luchtdruk
Wijzigen -
Ruw KILG 022333Z AUTO 19011KT 10SM VCTS -RA FEW055 SCT100 BKN110 23/19 A2995 RMK AO2 WSHFT 2238 LTG DSNT E AND SW TSE08B12E27 P0013 T02280194

VFR

21.7°C / 19.4°C

[Meer]
Wind 180º 11kt. Wind Shift present.
Zicht >10km
Weer Light Thunderstorm Rain 3.05mm precipitation
Wolken Few Clouds 5500ft
Broken Clouds 9500ft
Overcast 11000ft
Luchtdruk
Wijzigen -
Ruw KILG 022318Z AUTO 18011KT 8SM -TSRA FEW055 BKN095 OVC110 22/19 A2996 RMK AO2 WSHFT 2238 LTG DSNT SE AND SW TSE08B12 P0012 T02170194

MVFR

21.7°C / 19.4°C

[Meer]
Wind 210º 7kt. Wind Shift present.
Zicht 4800m
Weer in the Vicinity Thunderstorm Heavy Rain Mist 2.54mm precipitation
Wolken Broken Clouds 4500ft
Broken Clouds 7500ft
Overcast 11000ft
Luchtdruk
Wijzigen -
Ruw KILG 022308Z 21007KT 3SM VCTS +RA BR BKN045 BKN075 OVC110 22/19 A2996 RMK AO2 WSHFT 2238 LTG DSNT SE-W TSE08 P0010 T02170194

IFR

21.7°C / 18.9°C

[Meer]
Wind 210º 10kt. Wind Shift present.
Zicht 3200m
Weer Heavy Thunderstorm Rain 1.02mm precipitation
Wolken Broken Clouds 4500ft
Overcast 7500ft
Luchtdruk
Wijzigen -
Ruw KILG 022257Z 21010KT 2SM +TSRA BKN045 OVC075 22/19 A2996 RMK AO2 WSHFT 2238 TWR VIS 3 LTG DSNT S-W P0004 T02170189

IFR

23.3°C / 20°C

[Meer]
Wind 300º 18kt Gust 27kt. Wind Shift present.
Zicht 1600m. Runway 01: Visual range is variable from 1524m up to more than 1829m.
Weer Heavy Thunderstorm Rain 17.27mm precipitation
Wolken Broken Clouds 3700ft
Broken Clouds 7000ft
Overcast 10000ft
Luchtdruk
Wijzigen -
Ruw KILG 022232Z AUTO 30018G27KT 1SM R01/5000VP6000FT +TSRA BKN037 BKN070 OVC100 23/20 A2995 RMK AO2 PK WND 30027/2228 WSHFT 2154 LTG DSNT W RAB2154 P0068 T02330200

LIFR

25.6°C / 18.3°C

[Meer]
Wind variable 6kt Gust 27kt. Wind Shift present.
Zicht 1200m. Runway 01: Visual range is variable from 914m up to more than 1829m.
Weer Heavy Thunderstorm Rain 11.43mm precipitation
Wolken Broken Clouds 2400ft
Broken Clouds 7500ft
Overcast 10000ft
Luchtdruk
Wijzigen -
Ruw KILG 022221Z AUTO VRB06G27KT 3/4SM R01/3000VP6000FT +TSRA BKN024 BKN075 OVC100 26/18 A2993 RMK AO2 PK WND 24027/2217 WSHFT 2154 LTG DSNT W-NE RAB2154 P0045 T02560183

IFR

25.6°C / 23.3°C

[Meer]
Wind 300º 19kt Gust 26kt
Zicht 2800m
Weer Thunderstorm Rain Mist 0.25mm precipitation
Wolken Broken Clouds 3500ft
Luchtdruk
Wijzigen -
Ruw KILG 022157Z AUTO 30019G26KT 1 3/4SM TSRA BR BKN035 26/23 A2993 RMK AO2 PK WND 29026/2157 LTG DSNT W AND NW RAB54 P0001 T02560233

VFR

28.3°C / 23.3°C

[Meer]
Wind 330º 16kt
Zicht >10km
Weer Thunderstorm
Wolken Vertical Visibility of 0ft.
Luchtdruk 1012
Wijzigen -
Ruw KILG 022151Z AUTO 33016KT 10SM TS BKN033 28/23 A2991 RMK AO2 LTG DSNT W AND NW TSB36 SLP128 T02830233

VFR

30°C / 22.8°C

[Meer]
Wind 260º 6kt
Zicht >10km
Weer Thunderstorm
Wolken Vertical Visibility of 0ft.
Luchtdruk
Wijzigen -
Ruw KILG 022142Z AUTO 26006KT 10SM TS SCT035 30/23 A2991 RMK AO2 LTG DSNT W-NE TSB36 T03000228

VFR

30.6°C / 22.8°C

[Meer]
Wind 220º 8kt
Zicht >10km
Weer in the Vicinity Thunderstorm
Wolken Vertical Visibility of 0ft.
Few Clouds 12000ft
Luchtdruk
Wijzigen -
Ruw KILG 022113Z AUTO 22008KT 10SM VCTS FEW100 FEW120 31/23 A2991 RMK AO2 LTG DSNT W-N T03060228

TAF voor Wilmington Manor (KILG)

From till


From till Wind 250º 5kt. Visibility 10km or more. in the Vicinity Showers . Broken Clouds 6000ft.
From till Wind 330º 5kt. Visibility 10km or more. Broken Clouds 4000ft.
From till Wind 340º 9kt. Visibility 10km or more. Broken Clouds 25000ft.
From till Wind 310º 5kt. Visibility 10km or more. Sky Clear.

Ruw: KILG 030528Z 0306/0406 25005KT P6SM VCSH BKN060 FM030800 33005KT P6SM BKN040 FM031500 34009KT P6SM BKN250 FM032300 31005KT P6SM SKC

Radar en neerslag nowcast voor Wilmington Manor

Motregen
Licht
Matig
Zwaar
Zeer zwaar
Hagel

De locatiemarkering is op Wilmington Manor geplaatst . Deze animation toont de neerslag radar van het afgelopen uur, maar ook de 1h verwachting. Motregen of lichte sneeuwval kan onzichtbaar zijn voor de radar. De neerslagintensiteit wordt met kleuren weergegeven, van lichtblauw tot oranje.

Huidige satellietbeelden voor Wilmington Manor, Verenigde Staten

De locatiemarkering is op Wilmington Manor geplaatst. [Meer]

Het realtime satellietbeeld combineert zichtbaar licht overdag met infraroodstraling 's nachts. 's Nachts is het beeld niet donker, omdat infraroodstraling temperatuurverschillen kan waarnemen. Helaas zijn lage wolken en mist moeilijk te onderscheiden van grondtemperaturen en kunnen dus 's nachts bijna onzichtbaar zijn. Meteosat-satellietbeelden voor Europa worden elke 5 minuten in real time bijgewerkt. De beelden van GOES-16/GOES-17 (Noord- en Zuid-Amerika) en Himawari (Azië) worden om de 10 minuten bijgewerkt.

Terug naar boven